Time;durP1;ratioP1;P1;durP2;ratioP2;P2;SDS_P1;SDS_P2;PMS_P1;PMS_P2;Temp;Humidity;BMP_temperature;BMP_pressure;BME280_temperature;BME280_humidity;BME280_pressure;Samples;Min_cycle;Max_cycle;Signal;HPM_P1;HPM_P2
2023/10/24 00:01:30;;;;;;;15.27;10.73;;;10.80;56.00;;;;;;5040741;28;46354;-85
2023/10/24 00:03:55;;;;;;;14.53;10.00;;;10.80;56.00;;;;;;5038754;28;46400;-81
2023/10/24 00:06:21;;;;;;;20.37;10.50;;;10.70;56.10;;;;;;5042672;28;46493;-85
2023/10/24 00:08:47;;;;;;;16.20;10.43;;;10.70;56.60;;;;;;5042422;28;46576;-86
2023/10/24 00:11:12;;;;;;;17.90;10.90;;;10.80;56.70;;;;;;5040435;28;46963;-86
2023/10/24 00:13:38;;;;;;;17.17;10.97;;;10.70;56.80;;;;;;5038532;28;45948;-85
2023/10/24 00:16:03;;;;;;;18.67;10.63;;;10.70;56.90;;;;;;5043914;28;46146;-85
2023/10/24 00:18:29;;;;;;;18.33;10.90;;;10.70;56.80;;;;;;5033052;28;46534;-84
2023/10/24 00:20:54;;;;;;;16.00;9.73;;;10.70;57.90;;;;;;5035357;28;46476;-84
2023/10/24 00:23:20;;;;;;;24.93;10.20;;;10.70;56.80;;;;;;5033563;28;47207;-86
2023/10/24 00:25:46;;;;;;;19.60;10.03;;;10.70;57.50;;;;;;5034030;28;46420;-85
2023/10/24 00:28:12;;;;;;;20.23;10.87;;;10.70;56.90;;;;;;5033403;28;46463;-83
2023/10/24 00:30:39;;;;;;;17.30;9.43;;;10.70;56.80;;;;;;5034895;28;46742;-85
2023/10/24 00:33:04;;;;;;;14.90;10.30;;;10.70;56.80;;;;;;5032893;28;46295;-85
2023/10/24 00:35:30;;;;;;;16.13;10.47;;;10.70;56.90;;;;;;5034899;28;46431;-85
2023/10/24 00:37:55;;;;;;;14.57;10.70;;;10.70;56.90;;;;;;5035616;28;47822;-85
2023/10/24 00:40:21;;;;;;;16.03;10.63;;;10.60;57.10;;;;;;5032697;28;47936;-84
2023/10/24 00:42:47;;;;;;;15.87;10.00;;;10.60;57.20;;;;;;5052431;28;46992;-84
2023/10/24 00:45:13;;;;;;;17.57;11.17;;;10.60;57.40;;;;;;5031518;28;46466;-82
2023/10/24 00:47:39;;;;;;;18.50;10.63;;;10.60;57.60;;;;;;5036122;28;46746;-86
2023/10/24 00:50:07;;;;;;;19.00;11.33;;;10.60;57.60;;;;;;5015583;28;47018;-86
2023/10/24 00:52:33;;;;;;;16.60;11.10;;;10.60;57.40;;;;;;5033727;28;46542;-84
2023/10/24 00:54:59;;;;;;;22.43;12.10;;;10.70;57.30;;;;;;5034015;28;46731;-86
2023/10/24 00:57:25;;;;;;;13.33;9.90;;;10.70;57.20;;;;;;5034586;28;46459;-84
2023/10/24 00:59:52;;;;;;;14.97;9.53;;;10.70;57.20;;;;;;5038958;28;46624;-85
2023/10/24 01:02:19;;;;;;;16.47;10.30;;;10.70;57.20;;;;;;5042618;28;46459;-85
2023/10/24 01:04:45;;;;;;;13.93;9.90;;;10.60;57.20;;;;;;5039838;28;46242;-84
2023/10/24 01:07:11;;;;;;;17.90;9.23;;;10.60;57.50;;;;;;5036860;28;46360;-85
2023/10/24 01:09:36;;;;;;;22.57;9.77;;;10.50;58.00;;;;;;5031845;28;48011;-86
2023/10/24 01:12:02;;;;;;;13.70;9.90;;;10.40;57.80;;;;;;5028762;28;46832;-84
2023/10/24 01:14:28;;;;;;;19.33;9.90;;;10.60;57.80;;;;;;5028673;28;46445;-84
2023/10/24 01:16:53;;;;;;;16.23;10.00;;;10.60;57.70;;;;;;5030856;28;46503;-84
2023/10/24 01:19:19;;;;;;;14.70;9.90;;;10.60;57.70;;;;;;5028571;28;46657;-83
2023/10/24 01:21:47;;;;;;;22.77;11.17;;;10.70;57.60;;;;;;5026482;28;46483;-84
2023/10/24 01:24:14;;;;;;;17.63;9.67;;;10.80;57.40;;;;;;5026410;28;46372;-84
2023/10/24 01:26:41;;;;;;;17.20;10.00;;;10.90;57.10;;;;;;5032804;28;45976;-83
2023/10/24 01:29:10;;;;;;;19.13;9.77;;;10.90;57.00;;;;;;5045143;28;49153;-85
2023/10/24 01:31:36;;;;;;;13.20;9.30;;;10.90;56.90;;;;;;5028316;28;46480;-85
2023/10/24 01:34:02;;;;;;;21.17;10.10;;;11.00;56.90;;;;;;5025158;28;46432;-84
2023/10/24 01:36:28;;;;;;;12.50;8.23;;;11.10;56.90;;;;;;5028346;28;46376;-82
2023/10/24 01:38:53;;;;;;;19.20;9.43;;;11.00;56.80;;;;;;5035154;28;48275;-86
2023/10/24 01:41:19;;;;;;;17.70;9.03;;;11.00;56.80;;;;;;5030534;28;46424;-84
2023/10/24 01:43:45;;;;;;;13.73;9.47;;;11.00;56.90;;;;;;5028891;28;45904;-84
2023/10/24 01:46:11;;;;;;;18.47;9.23;;;11.00;56.80;;;;;;5025927;28;46595;-84
2023/10/24 01:48:36;;;;;;;16.03;9.97;;;11.10;56.90;;;;;;5030262;28;46700;-84
2023/10/24 01:51:02;;;;;;;20.13;10.20;;;11.10;56.80;;;;;;5033346;28;46846;-85
2023/10/24 01:53:28;;;;;;;13.97;10.30;;;11.10;56.80;;;;;;5029902;28;46185;-84
2023/10/24 01:55:54;;;;;;;21.20;10.23;;;11.10;56.80;;;;;;5041225;28;46382;-85
2023/10/24 01:58:19;;;;;;;16.00;9.17;;;11.20;56.80;;;;;;5040888;28;46379;-85
2023/10/24 02:00:45;;;;;;;12.90;9.33;;;11.20;56.70;;;;;;5042704;28;46274;-81
2023/10/24 02:03:10;;;;;;;12.90;8.83;;;11.20;56.60;;;;;;5042080;28;46454;-86
2023/10/24 02:05:36;;;;;;;12.93;9.20;;;11.40;56.80;;;;;;5035832;28;46386;-83
2023/10/24 02:08:02;;;;;;;15.37;9.70;;;11.30;56.70;;;;;;5029184;28;46527;-84
2023/10/24 02:10:27;;;;;;;13.27;9.20;;;11.30;56.60;;;;;;5028741;28;45802;-85
2023/10/24 02:12:53;;;;;;;18.07;8.53;;;11.30;56.60;;;;;;5031357;28;46382;-85
2023/10/24 02:15:19;;;;;;;11.90;8.93;;;11.30;56.70;;;;;;5032430;28;46671;-83
2023/10/24 02:17:44;;;;;;;17.53;8.30;;;11.20;56.60;;;;;;5028410;28;48076;-84
2023/10/24 02:20:10;;;;;;;13.27;7.90;;;11.20;56.90;;;;;;5033492;28;46473;-82
2023/10/24 02:22:36;;;;;;;12.20;9.33;;;11.20;56.90;;;;;;5032066;28;47178;-82
2023/10/24 02:25:01;;;;;;;12.03;8.00;;;11.20;57.10;;;;;;5037722;28;47038;-83
2023/10/24 02:27:27;;;;;;;11.43;8.13;;;11.10;57.20;;;;;;5029084;28;48216;-82
2023/10/24 02:29:53;;;;;;;13.37;8.23;;;11.00;57.50;;;;;;5029881;28;46431;-83
2023/10/24 02:32:19;;;;;;;11.37;7.80;;;10.90;57.80;;;;;;5033025;28;46481;-83
2023/10/24 02:34:51;;;;;;;10.80;7.73;;;10.70;58.40;;;;;;5030769;28;46380;-83
2023/10/24 02:37:17;;;;;;;10.77;7.60;;;10.60;59.00;;;;;;5028032;28;47099;-83
2023/10/24 02:39:43;;;;;;;13.40;8.43;;;10.60;59.40;;;;;;5031732;28;46203;-84
2023/10/24 02:42:09;;;;;;;10.40;7.77;;;10.50;59.60;;;;;;5029671;28;46434;-83
2023/10/24 02:44:34;;;;;;;11.83;7.70;;;10.60;60.00;;;;;;5033208;28;46118;-82
2023/10/24 02:47:00;;;;;;;13.37;8.80;;;10.40;60.00;;;;;;5027718;28;48731;-82
2023/10/24 02:49:25;;;;;;;11.60;8.60;;;10.40;60.00;;;;;;5028835;28;46361;-83
2023/10/24 02:51:51;;;;;;;16.33;8.50;;;10.40;60.20;;;;;;5029017;28;46761;-84
2023/10/24 02:54:17;;;;;;;13.47;7.83;;;10.30;60.20;;;;;;5034378;28;46473;-88
2023/10/24 02:56:43;;;;;;;13.53;8.07;;;10.20;60.50;;;;;;5034919;28;47030;-86
2023/10/24 02:59:08;;;;;;;12.40;8.27;;;10.10;60.80;;;;;;5030977;28;46442;-86
2023/10/24 03:01:34;;;;;;;26.10;7.90;;;10.20;61.30;;;;;;5037410;28;46540;-87
2023/10/24 03:04:00;;;;;;;12.73;7.70;;;10.00;61.10;;;;;;5034646;28;46753;-85
2023/10/24 03:06:25;;;;;;;15.10;7.97;;;10.00;61.10;;;;;;5037124;28;49494;-83
2023/10/24 03:08:51;;;;;;;10.77;7.80;;;10.00;61.10;;;;;;5033882;28;46537;-85
2023/10/24 03:11:23;;;;;;;13.87;7.00;;;10.00;61.10;;;;;;5051218;28;46474;-86
2023/10/24 03:13:51;;;;;;;13.50;8.00;;;10.00;61.00;;;;;;5035675;28;46430;-86
2023/10/24 03:16:16;;;;;;;12.73;7.70;;;10.00;60.90;;;;;;5038689;28;47337;-86
2023/10/24 03:18:42;;;;;;;15.23;8.27;;;10.00;61.00;;;;;;5036794;28;46600;-86
2023/10/24 03:21:08;;;;;;;15.53;7.50;;;10.00;61.40;;;;;;5045094;28;45940;-85
2023/10/24 03:23:34;;;;;;;17.57;7.80;;;10.00;60.80;;;;;;5040665;28;46499;-86
2023/10/24 03:26:03;;;;;;;11.30;8.10;;;10.00;60.70;;;;;;5033516;28;48179;-83
2023/10/24 03:28:29;;;;;;;11.77;8.47;;;10.00;60.70;;;;;;5036516;28;46595;-84
2023/10/24 03:31:05;;;;;;;11.23;7.73;;;9.90;61.70;;;;;;5038949;28;46340;-80
2023/10/24 03:33:31;;;;;;;11.23;8.23;;;9.90;61.70;;;;;;5039633;28;46188;-84
2023/10/24 03:35:57;;;;;;;11.10;7.27;;;9.90;61.60;;;;;;5041670;28;47117;-84
2023/10/24 03:38:23;;;;;;;14.20;7.53;;;9.90;61.60;;;;;;5044173;28;46425;-84
2023/10/24 03:40:49;;;;;;;16.90;8.97;;;9.90;61.50;;;;;;5043946;28;45850;-85
2023/10/24 03:43:15;;;;;;;18.13;8.67;;;9.90;61.60;;;;;;5042670;28;46801;-84
2023/10/24 03:45:40;;;;;;;13.20;7.73;;;9.90;61.70;;;;;;5033470;28;46442;-82
2023/10/24 03:48:06;;;;;;;10.90;7.30;;;9.90;61.50;;;;;;5031297;28;46662;-83
2023/10/24 03:50:36;;;;;;;13.30;8.30;;;9.90;61.60;;;;;;5034266;28;46496;-83
2023/10/24 03:53:02;;;;;;;17.33;7.73;;;9.90;61.50;;;;;;5030380;28;46672;-80
2023/10/24 03:55:27;;;;;;;17.00;8.17;;;9.90;61.40;;;;;;5030915;28;46710;-82
2023/10/24 03:57:53;;;;;;;14.10;8.83;;;9.90;61.30;;;;;;5033164;28;46530;-81
2023/10/24 04:00:18;;;;;;;11.87;7.87;;;9.90;61.40;;;;;;5028606;28;46769;-80
2023/10/24 04:02:46;;;;;;;14.27;9.10;;;9.90;61.40;;;;;;5033242;28;46453;-79
2023/10/24 04:05:11;;;;;;;16.43;8.80;;;9.90;61.40;;;;;;5032888;28;46863;-81
2023/10/24 04:07:37;;;;;;;11.70;8.50;;;10.00;60.40;;;;;;5033248;28;46444;-81
2023/10/24 04:10:04;;;;;;;13.13;8.00;;;10.00;60.30;;;;;;5032043;28;46475;-80
2023/10/24 04:12:29;;;;;;;12.90;8.20;;;10.00;60.10;;;;;;5034752;28;46466;-81
2023/10/24 04:14:55;;;;;;;12.27;7.73;;;10.00;60.00;;;;;;5032659;28;46772;-81
2023/10/24 04:17:21;;;;;;;12.03;6.80;;;10.00;60.00;;;;;;5029252;28;46484;-80
2023/10/24 04:19:46;;;;;;;8.10;5.77;;;10.00;60.20;;;;;;5035032;28;46662;-80
2023/10/24 04:22:12;;;;;;;9.97;6.33;;;9.90;62.30;;;;;;5033625;28;46490;-82
2023/10/24 04:24:37;;;;;;;11.73;6.80;;;9.90;61.10;;;;;;5031695;28;47444;-81
2023/10/24 04:27:09;;;;;;;9.23;6.63;;;9.90;61.30;;;;;;5031376;28;45914;-80
2023/10/24 04:29:35;;;;;;;10.67;6.93;;;9.90;61.20;;;;;;5030096;28;46621;-81
2023/10/24 04:32:00;;;;;;;9.90;6.90;;;9.90;61.40;;;;;;5030415;28;46948;-80
2023/10/24 04:34:26;;;;;;;12.67;7.17;;;10.00;60.20;;;;;;5032010;28;47042;-79
2023/10/24 04:36:53;;;;;;;10.63;7.23;;;10.00;60.00;;;;;;5032096;28;46787;-80
2023/10/24 04:39:19;;;;;;;15.63;6.60;;;10.00;60.10;;;;;;5029523;28;46599;-82
2023/10/24 04:41:47;;;;;;;10.53;6.20;;;10.00;60.10;;;;;;5031325;28;46993;-81
2023/10/24 04:44:13;;;;;;;15.43;6.93;;;10.00;60.10;;;;;;5031094;28;47128;-80
2023/10/24 04:46:39;;;;;;;14.10;7.47;;;10.00;60.10;;;;;;5030638;28;46813;-80
2023/10/24 04:49:06;;;;;;;12.67;8.00;;;9.90;61.40;;;;;;5031858;28;46743;-83
2023/10/24 04:51:31;;;;;;;12.00;9.30;;;9.90;61.70;;;;;;5030126;28;46725;-84
2023/10/24 04:53:57;;;;;;;11.83;7.70;;;9.80;61.90;;;;;;5031251;28;46987;-83
2023/10/24 04:56:22;;;;;;;11.27;7.93;;;9.80;62.30;;;;;;5031597;28;46558;-83
2023/10/24 04:58:49;;;;;;;13.20;8.23;;;9.80;62.20;;;;;;5046671;28;46910;-80
2023/10/24 05:01:14;;;;;;;16.30;9.80;;;9.80;62.00;;;;;;5033945;28;46421;-80
2023/10/24 05:03:40;;;;;;;22.70;10.97;;;9.90;61.80;;;;;;5034201;28;46651;-80
2023/10/24 05:06:06;;;;;;;22.50;10.93;;;9.90;61.80;;;;;;5031480;28;45851;-82
2023/10/24 05:08:31;;;;;;;18.97;11.10;;;9.90;61.90;;;;;;5031015;28;46522;-82
2023/10/24 05:10:57;;;;;;;25.53;11.50;;;9.90;62.00;;;;;;5035265;28;46606;-80
2023/10/24 05:13:22;;;;;;;18.37;12.10;;;10.00;60.90;;;;;;5031139;28;46555;-85
2023/10/24 05:15:48;;;;;;;21.63;11.43;;;10.00;60.60;;;;;;5036105;28;45851;-82
2023/10/24 05:18:14;;;;;;;16.47;11.33;;;10.00;60.80;;;;;;5039699;28;46587;-81
2023/10/24 05:20:39;;;;;;;21.03;12.07;;;10.00;60.90;;;;;;5033590;28;46373;-80
2023/10/24 05:23:06;;;;;;;12.60;9.70;;;10.00;61.10;;;;;;5030667;28;46742;-77
2023/10/24 05:25:31;;;;;;;19.13;11.00;;;10.10;60.90;;;;;;5033404;28;46596;-80
2023/10/24 05:27:57;;;;;;;13.30;10.50;;;10.20;60.80;;;;;;5039405;28;46536;-81
2023/10/24 05:30:23;;;;;;;16.10;10.50;;;10.20;60.60;;;;;;5031032;28;46875;-81
2023/10/24 05:32:49;;;;;;;15.00;9.80;;;10.20;60.50;;;;;;5031614;28;46458;-82
2023/10/24 05:35:14;;;;;;;18.33;10.53;;;10.20;60.30;;;;;;5033363;28;46778;-80
2023/10/24 05:37:40;;;;;;;15.40;10.83;;;10.30;60.20;;;;;;5033600;28;46487;-80
2023/10/24 05:40:07;;;;;;;18.30;10.20;;;10.30;60.00;;;;;;5039416;28;46430;-80
2023/10/24 05:42:32;;;;;;;15.87;9.00;;;10.30;60.00;;;;;;5030313;28;47377;-79
2023/10/24 05:44:58;;;;;;;19.50;10.07;;;10.40;60.00;;;;;;5031277;28;46504;-80
2023/10/24 05:47:23;;;;;;;13.23;9.30;;;10.40;60.00;;;;;;5028433;28;45938;-80
2023/10/24 05:49:50;;;;;;;17.60;8.43;;;10.40;60.00;;;;;;5030563;28;47092;-80
2023/10/24 05:52:16;;;;;;;15.80;9.67;;;10.40;60.00;;;;;;5029624;28;47167;-81
2023/10/24 05:54:41;;;;;;;15.37;9.90;;;10.40;60.00;;;;;;5029966;28;46966;-81
2023/10/24 05:57:07;;;;;;;21.67;10.30;;;10.40;60.00;;;;;;5028914;28;46482;-81
2023/10/24 05:59:33;;;;;;;15.60;10.00;;;10.40;60.10;;;;;;5030332;28;46966;-83
2023/10/24 06:01:59;;;;;;;16.17;11.47;;;10.50;60.50;;;;;;5031503;28;46725;-79
2023/10/24 06:04:25;;;;;;;26.33;13.10;;;10.50;60.00;;;;;;5028863;28;46820;-79
2023/10/24 06:06:50;;;;;;;23.00;13.10;;;10.50;60.10;;;;;;5033771;28;46417;-79
2023/10/24 06:09:17;;;;;;;21.33;12.90;;;10.50;60.30;;;;;;5031310;28;46681;-79
2023/10/24 06:11:43;;;;;;;23.50;13.10;;;10.50;60.30;;;;;;5029720;28;47737;-79
2023/10/24 06:14:09;;;;;;;22.73;14.33;;;10.50;60.60;;;;;;5035310;28;46664;-82
2023/10/24 06:16:34;;;;;;;15.60;10.70;;;10.50;60.70;;;;;;5031853;28;46932;-79
2023/10/24 06:19:00;;;;;;;15.40;10.07;;;10.50;60.50;;;;;;5036042;28;46442;-80
2023/10/24 06:21:26;;;;;;;16.13;11.00;;;10.50;60.80;;;;;;5028649;28;46766;-80
2023/10/24 06:23:53;;;;;;;19.67;10.80;;;10.40;61.10;;;;;;5025194;28;47084;-79
2023/10/24 06:26:19;;;;;;;20.37;11.30;;;10.40;61.50;;;;;;5026401;28;46586;-81
2023/10/24 06:28:45;;;;;;;25.23;12.50;;;10.50;61.40;;;;;;5035467;28;46080;-81
2023/10/24 06:31:11;;;;;;;18.70;10.70;;;10.50;61.20;;;;;;5028796;28;46478;-82
2023/10/24 06:33:37;;;;;;;16.50;11.70;;;10.50;61.20;;;;;;5029801;28;46475;-79
2023/10/24 06:36:03;;;;;;;15.23;11.03;;;10.50;61.40;;;;;;5032868;28;46846;-80
2023/10/24 06:38:30;;;;;;;21.17;10.77;;;10.50;61.40;;;;;;5030954;28;46711;-79
2023/10/24 06:40:55;;;;;;;20.73;10.33;;;10.60;60.90;;;;;;5031260;28;47256;-79
2023/10/24 06:43:21;;;;;;;39.77;12.50;;;10.70;60.50;;;;;;5031717;28;46852;-79
2023/10/24 06:45:47;;;;;;;17.33;10.90;;;10.70;60.50;;;;;;5031024;28;47370;-80
2023/10/24 06:48:14;;;;;;;25.83;12.20;;;10.80;60.50;;;;;;5035734;28;46488;-81
2023/10/24 06:50:39;;;;;;;20.20;10.40;;;10.80;60.60;;;;;;5033860;28;46702;-83
2023/10/24 06:53:09;;;;;;;27.90;12.60;;;10.90;60.70;;;;;;5030207;28;46751;-81
2023/10/24 06:55:35;;;;;;;24.70;10.03;;;11.00;60.30;;;;;;5031279;28;46582;-83
2023/10/24 06:58:01;;;;;;;16.73;8.90;;;11.10;60.00;;;;;;5030228;28;46603;-81
2023/10/24 07:00:28;;;;;;;16.67;10.40;;;11.10;60.00;;;;;;5033337;28;47187;-80
2023/10/24 07:02:53;;;;;;;17.20;10.37;;;11.10;60.40;;;;;;5033816;28;46534;-83
2023/10/24 07:05:19;;;;;;;36.00;14.73;;;11.10;60.40;;;;;;5039179;28;46544;-80
2023/10/24 07:07:44;;;;;;;23.23;10.47;;;11.20;60.30;;;;;;5040219;28;46502;-80
2023/10/24 07:10:10;;;;;;;23.40;11.20;;;11.30;60.20;;;;;;5040862;28;47831;-81
2023/10/24 07:12:36;;;;;;;22.00;11.30;;;11.20;60.20;;;;;;5042062;28;46373;-82
2023/10/24 07:15:03;;;;;;;23.97;11.80;;;11.20;60.50;;;;;;5040959;28;45830;-81
2023/10/24 07:17:29;;;;;;;20.13;11.00;;;11.30;60.20;;;;;;5041603;28;46822;-81
2023/10/24 07:19:55;;;;;;;21.80;10.27;;;11.40;60.00;;;;;;5041089;28;46671;-82
2023/10/24 07:22:21;;;;;;;18.10;10.90;;;11.50;59.60;;;;;;5040780;28;46175;-81
2023/10/24 07:24:46;;;;;;;17.13;10.40;;;11.60;59.40;;;;;;5032640;28;47090;-82
2023/10/24 07:27:12;;;;;;;21.90;10.60;;;11.70;59.30;;;;;;5032445;28;46664;-81
2023/10/24 07:29:37;;;;;;;17.73;11.03;;;11.70;59.00;;;;;;5032513;28;46542;-84
2023/10/24 07:32:03;;;;;;;24.50;13.63;;;11.80;59.20;;;;;;5033170;28;46477;-82
2023/10/24 07:34:33;;;;;;;14.77;11.40;;;11.80;59.10;;;;;;5031463;28;46885;-81
2023/10/24 07:36:59;;;;;;;20.37;11.60;;;11.90;58.80;;;;;;5032773;28;46594;-81
2023/10/24 07:39:24;;;;;;;21.27;10.83;;;12.00;58.60;;;;;;5030499;28;46542;-81
2023/10/24 07:41:50;;;;;;;18.77;10.90;;;12.10;58.50;;;;;;5032035;28;46699;-80
2023/10/24 07:44:15;;;;;;;17.50;11.50;;;12.10;58.30;;;;;;5030797;28;46876;-81
2023/10/24 07:46:41;;;;;;;20.90;11.33;;;12.20;58.10;;;;;;5031326;28;46042;-81
2023/10/24 07:49:06;;;;;;;22.03;11.90;;;12.30;58.20;;;;;;5032942;28;48984;-80
2023/10/24 07:51:32;;;;;;;21.20;12.13;;;12.40;57.90;;;;;;5032654;28;46499;-81
2023/10/24 07:53:58;;;;;;;16.13;10.60;;;12.50;57.70;;;;;;5030239;28;47227;-80
2023/10/24 07:56:24;;;;;;;13.93;9.27;;;12.40;57.70;;;;;;5042190;28;46625;-81
2023/10/24 07:58:49;;;;;;;14.03;8.17;;;12.50;58.00;;;;;;5034358;28;47122;-82
2023/10/24 08:01:15;;;;;;;17.07;9.30;;;12.50;58.30;;;;;;5030818;28;46440;-81
2023/10/24 08:03:41;;;;;;;13.47;8.80;;;12.50;58.30;;;;;;5030708;28;46746;-81
2023/10/24 08:06:06;;;;;;;16.57;9.43;;;12.50;58.60;;;;;;5032667;28;46964;-79
2023/10/24 08:08:32;;;;;;;15.67;8.77;;;12.50;58.90;;;;;;5028921;28;48049;-80
2023/10/24 08:10:57;;;;;;;14.73;8.43;;;12.50;59.00;;;;;;5031666;28;46460;-81
2023/10/24 08:13:23;;;;;;;17.20;7.90;;;12.50;58.80;;;;;;5034593;28;46429;-81
2023/10/24 08:15:51;;;;;;;12.07;7.80;;;12.60;58.80;;;;;;5033566;28;46387;-81
2023/10/24 08:18:20;;;;;;;12.77;7.60;;;12.70;58.80;;;;;;5030203;28;49648;-81
2023/10/24 08:20:46;;;;;;;15.83;8.10;;;12.80;58.30;;;;;;5033525;28;46129;-80
2023/10/24 08:23:12;;;;;;;11.90;7.60;;;12.80;59.40;;;;;;5030116;28;46389;-81
2023/10/24 08:25:38;;;;;;;12.23;6.87;;;12.80;58.20;;;;;;5034499;28;46534;-81
2023/10/24 08:28:04;;;;;;;11.43;7.87;;;12.90;58.00;;;;;;5030221;28;46425;-81
2023/10/24 08:30:31;;;;;;;11.27;7.37;;;13.00;57.80;;;;;;5031763;28;46959;-80
2023/10/24 08:32:57;;;;;;;9.27;7.13;;;12.90;57.50;;;;;;5030180;28;46395;-81
2023/10/24 08:35:23;;;;;;;12.77;8.23;;;13.00;57.50;;;;;;5025097;28;46482;-79
2023/10/24 08:37:49;;;;;;;70.80;41.00;;;13.00;57.90;;;;;;5031404;28;48950;-80
2023/10/24 08:40:15;;;;;;;14.43;9.33;;;13.10;57.80;;;;;;5032050;28;45818;-80
2023/10/24 08:42:41;;;;;;;19.33;10.80;;;13.00;57.80;;;;;;5028763;28;46474;-80
2023/10/24 08:45:08;;;;;;;15.83;9.10;;;13.00;58.20;;;;;;5025415;28;46519;-81
2023/10/24 08:47:34;;;;;;;17.70;9.37;;;12.90;58.60;;;;;;5027538;28;47484;-81
2023/10/24 08:50:01;;;;;;;16.33;7.80;;;12.90;58.80;;;;;;5031492;28;46620;-82
2023/10/24 08:52:30;;;;;;;14.40;8.30;;;12.90;58.80;;;;;;5031164;28;46497;-82
2023/10/24 08:54:59;;;;;;;18.70;9.00;;;13.00;58.80;;;;;;5030649;28;46876;-83
2023/10/24 08:57:28;;;;;;;13.10;8.40;;;12.90;59.10;;;;;;5029849;28;47075;-80
2023/10/24 08:59:56;;;;;;;14.50;8.37;;;12.80;59.40;;;;;;5031341;28;46513;-81
2023/10/24 09:02:22;;;;;;;18.73;10.20;;;12.90;59.30;;;;;;5033962;28;46344;-81
2023/10/24 09:04:51;;;;;;;20.17;9.93;;;13.00;58.70;;;;;;5039541;28;47055;-83
2023/10/24 09:07:17;;;;;;;15.47;9.30;;;13.20;58.00;;;;;;5029682;28;46541;-81
2023/10/24 09:09:43;;;;;;;17.30;9.80;;;13.30;57.40;;;;;;5029538;28;46562;-81
2023/10/24 09:12:14;;;;;;;18.57;9.40;;;13.40;57.20;;;;;;5031605;28;46780;-81
2023/10/24 09:14:54;;;;;;;12.70;7.67;;;13.40;57.10;;;;;;4994468;28;46424;-79
2023/10/24 09:17:22;;;;;;;12.70;7.87;;;13.40;57.20;;;;;;5031532;28;46637;-81
2023/10/24 09:19:48;;;;;;;13.33;7.13;;;13.20;58.00;;;;;;5029549;28;46473;-81
2023/10/24 09:22:18;;;;;;;13.20;8.00;;;13.20;58.00;;;;;;5029823;28;46422;-81
2023/10/24 09:24:48;;;;;;;18.87;8.30;;;13.20;58.10;;;;;;5031008;28;46865;-81
2023/10/24 09:27:15;;;;;;;12.47;7.77;;;13.10;58.60;;;;;;5028111;28;47842;-80
2023/10/24 09:29:41;;;;;;;14.70;8.60;;;12.90;58.80;;;;;;5031069;28;46583;-81
2023/10/24 09:32:06;;;;;;;14.57;8.30;;;12.90;59.40;;;;;;5031065;28;46580;-82
2023/10/24 09:34:33;;;;;;;16.90;9.00;;;12.80;59.60;;;;;;5032058;28;46504;-82
2023/10/24 09:37:10;;;;;;;11.77;8.67;;;12.90;59.70;;;;;;5030245;28;46440;-80
2023/10/24 09:39:57;;;;;;;14.00;9.00;;;12.80;59.50;;;;;;5027763;28;46490;-81
2023/10/24 09:42:28;;;;;;;14.63;9.00;;;12.90;59.50;;;;;;5029742;28;46459;-81
2023/10/24 09:45:02;;;;;;;14.80;9.70;;;12.90;59.50;;;;;;5030581;28;46655;-81
2023/10/24 09:47:29;;;;;;;16.17;9.33;;;13.00;59.40;;;;;;5031022;28;46630;-80
2023/10/24 09:49:55;;;;;;;13.33;8.53;;;13.20;59.30;;;;;;5028705;28;46497;-80
2023/10/24 09:52:27;;;;;;;14.73;9.97;;;13.20;59.00;;;;;;5029932;28;47159;-81
2023/10/24 09:54:53;;;;;;;19.30;11.77;;;13.30;58.90;;;;;;5030445;28;47044;-81
2023/10/24 09:57:20;;;;;;;25.47;11.03;;;13.20;59.10;;;;;;5027293;28;47178;-81
2023/10/24 09:59:56;;;;;;;24.83;12.37;;;13.10;59.50;;;;;;5026263;28;46569;-82
2023/10/24 10:02:26;;;;;;;16.70;11.77;;;13.10;59.80;;;;;;5045830;28;46422;-83
2023/10/24 10:04:52;;;;;;;24.37;11.70;;;12.90;60.10;;;;;;5029846;28;46831;-81
2023/10/24 10:07:18;;;;;;;18.40;12.37;;;12.80;60.80;;;;;;5026502;28;47198;-81
2023/10/24 10:09:50;;;;;;;18.43;12.50;;;12.80;60.80;;;;;;5033150;28;46467;-81
2023/10/24 10:12:18;;;;;;;24.30;12.60;;;12.70;61.10;;;;;;5037664;28;46819;-83
2023/10/24 10:15:05;;;;;;;18.37;12.40;;;12.70;61.60;;;;;;5029570;28;46749;-80
2023/10/24 10:17:48;;;;;;;18.47;12.70;;;12.70;61.90;;;;;;5029517;28;46691;-81
2023/10/24 10:20:19;;;;;;;23.40;13.87;;;12.60;62.30;;;;;;5029578;28;46492;-83
2023/10/24 10:23:11;;;;;;;22.90;15.17;;;12.80;62.80;;;;;;5029634;28;46986;-82
2023/10/24 10:25:52;;;;;;;27.63;15.10;;;12.70;62.60;;;;;;5031991;28;46383;-82
2023/10/24 10:28:34;;;;;;;36.00;17.83;;;12.80;62.60;;;;;;5029483;28;46797;-82
2023/10/24 10:31:42;;;;;;;22.07;15.50;;;12.80;62.60;;;;;;5026991;28;47065;-82
2023/10/24 10:34:08;;;;;;;22.40;15.47;;;12.70;62.90;;;;;;5028844;28;46409;-82
2023/10/24 10:36:33;;;;;;;28.87;17.23;;;12.70;63.10;;;;;;5030804;28;46884;-83
2023/10/24 10:39:00;;;;;;;25.80;17.33;;;12.70;63.20;;;;;;5029243;28;48475;-81
2023/10/24 10:41:27;;;;;;;20.07;14.90;;;12.70;63.20;;;;;;5024823;28;46710;-81
2023/10/24 10:43:59;;;;;;;23.53;14.73;;;12.80;63.10;;;;;;5028610;28;46982;-80
2023/10/24 10:46:26;;;;;;;22.80;15.60;;;12.90;62.90;;;;;;5030490;28;45928;-83
2023/10/24 10:48:56;;;;;;;23.97;15.50;;;13.00;62.80;;;;;;5030453;28;47297;-83
2023/10/24 10:51:26;;;;;;;27.67;16.10;;;13.10;62.30;;;;;;5032620;28;46559;-83
2023/10/24 10:54:24;;;;;;;30.40;17.43;;;13.10;62.40;;;;;;5030939;28;46083;-84
2023/10/24 10:56:50;;;;;;;28.30;16.43;;;13.20;62.30;;;;;;5031876;28;46708;-82
2023/10/24 10:59:45;;;;;;;28.33;16.77;;;13.30;61.90;;;;;;5032354;28;47921;-79
2023/10/24 11:02:17;;;;;;;26.23;17.50;;;13.40;61.60;;;;;;5030939;28;46605;-80
2023/10/24 11:04:43;;;;;;;26.37;18.10;;;13.40;61.20;;;;;;5028258;28;46493;-81
2023/10/24 11:07:09;;;;;;;26.10;17.57;;;13.40;61.60;;;;;;5028311;28;46724;-80
2023/10/24 11:09:37;;;;;;;27.80;17.20;;;13.40;61.60;;;;;;5027849;28;46514;-81
2023/10/24 11:12:46;;;;;;;22.43;15.80;;;13.50;61.10;;;;;;5029023;28;47360;-81
2023/10/24 11:15:14;;;;;;;24.50;17.37;;;13.70;60.50;;;;;;4980304;28;45981;-81
2023/10/24 11:17:40;;;;;;;25.80;16.73;;;13.80;60.20;;;;;;5029155;28;45954;-81
2023/10/24 11:20:10;;;;;;;32.63;17.80;;;13.80;60.30;;;;;;5029895;28;46984;-81
2023/10/24 11:22:36;;;;;;;23.93;17.53;;;13.80;60.10;;;;;;5029723;28;46571;-81
2023/10/24 11:25:09;;;;;;;24.43;16.53;;;13.80;60.10;;;;;;5032245;28;46344;-80
2023/10/24 11:27:34;;;;;;;29.83;16.37;;;13.90;60.10;;;;;;5032281;28;46574;-81
2023/10/24 11:30:00;;;;;;;30.97;18.80;;;13.90;60.00;;;;;;5027339;28;48225;-81
2023/10/24 11:32:26;;;;;;;30.80;18.87;;;13.90;60.20;;;;;;5030893;28;47424;-83
2023/10/24 11:34:51;;;;;;;35.63;18.90;;;13.80;60.30;;;;;;5030332;28;46852;-81
2023/10/24 11:37:17;;;;;;;21.53;16.10;;;13.80;60.50;;;;;;5025707;28;46744;-80
2023/10/24 11:39:43;;;;;;;30.00;16.37;;;13.70;60.60;;;;;;5030409;28;46524;-79
2023/10/24 11:42:08;;;;;;;27.30;15.63;;;13.60;61.00;;;;;;5031031;28;46393;-82
2023/10/24 11:44:34;;;;;;;23.40;15.27;;;13.50;61.20;;;;;;5036651;28;46478;-81
2023/10/24 11:47:02;;;;;;;21.07;15.17;;;13.40;61.30;;;;;;5032617;28;46403;-83
2023/10/24 11:49:34;;;;;;;26.50;16.93;;;13.50;61.20;;;;;;5030124;28;46416;-81
2023/10/24 11:52:00;;;;;;;22.87;16.43;;;13.50;61.10;;;;;;5034152;28;45987;-82
2023/10/24 11:54:26;;;;;;;32.80;16.33;;;13.50;61.00;;;;;;5033988;28;47027;-81
2023/10/24 11:56:56;;;;;;;56.47;37.23;;;13.40;61.10;;;;;;5030899;28;46765;-81
2023/10/24 11:59:21;;;;;;;27.17;20.47;;;13.50;61.10;;;;;;5028939;28;49615;-80
2023/10/24 12:01:47;;;;;;;30.30;21.73;;;13.40;62.30;;;;;;5026763;28;46776;-80
2023/10/24 12:04:13;;;;;;;32.10;20.57;;;13.40;61.30;;;;;;5033269;28;46591;-82
2023/10/24 12:06:39;;;;;;;24.33;16.27;;;13.40;61.30;;;;;;5032352;28;46499;-83
2023/10/24 12:09:06;;;;;;;22.80;17.13;;;13.40;61.10;;;;;;5033187;28;47972;-81
2023/10/24 12:11:35;;;;;;;24.90;17.33;;;13.50;61.20;;;;;;5030978;28;46490;-81
2023/10/24 12:14:01;;;;;;;20.97;14.07;;;13.50;60.90;;;;;;5029463;28;46386;-81
2023/10/24 12:16:31;;;;;;;21.83;13.03;;;13.40;61.30;;;;;;5038500;28;46475;-79
2023/10/24 12:18:57;;;;;;;16.80;12.20;;;13.30;61.90;;;;;;5031722;28;48387;-80
2023/10/24 12:21:23;;;;;;;18.70;11.90;;;13.10;62.60;;;;;;5034143;28;46780;-83
2023/10/24 12:23:49;;;;;;;20.00;13.20;;;13.00;62.80;;;;;;5032490;28;46486;-83
2023/10/24 12:26:15;;;;;;;19.37;13.57;;;12.90;62.90;;;;;;5034176;28;46633;-82
2023/10/24 12:28:43;;;;;;;19.60;13.17;;;13.00;62.80;;;;;;5030452;28;49205;-81
2023/10/24 12:31:12;;;;;;;18.57;11.80;;;13.10;62.70;;;;;;5033149;28;46516;-81
2023/10/24 12:33:38;;;;;;;17.33;13.20;;;13.10;62.60;;;;;;5031353;28;45903;-83